»·PEaware :: N6182G KSBP-KBFL

N6182G :: KSBP-KBFL

FLIGHT INFORMATION

Flight Status: Arrived
Operator: Privately registered:
United States
More flights under this callsign
Pilot: Paul A. (20189)
Aircraft: CESSNA 182 SKYLANE
(C182)
More flights by this aircraft type
Origin: KSBP San Luis Co Regl
United States
Destination: KBFL Meadows
United States
More flights between these airports :: More routes between these airports
Route:
File this flight plan on PilotEdge
Remarks:
Altitude:
(Current/Filed)
5,500ft
Speed:
(Current/Filed)
120kts
Departed: 02-Oct-18 04:57 PM
Arrived: 02-Oct-18 05:58 PM
Distance/Time
Traveled:
79nm/1:00
Distance/Time
To Go:
Arrived

Flight Plot

Page will automatically refresh every two minutes.


Map Options




Map Legend


Flown Route
Filed Route
Departure Airport
Arrival Airport
Navaid (VOR, NDB)
Fix

Horizontal Profiles

Position Reports

Time Latitude Longitude Heading Altitude Ground
Speed
02-Oct-18 16:54 35.238478 -120.636919 89 215ft 0kts
02-Oct-18 16:55 35.238478 -120.636917 89 215ft 0kts
02-Oct-18 16:56 35.237657 -120.637197 211 215ft 15kts
02-Oct-18 16:57 35.234185 -120.633591 124 215ft 17kts
02-Oct-18 16:58 35.233223 -120.632681 215 215ft 0kts
02-Oct-18 16:59 35.239172 -120.644165 297 485ft 89kts
02-Oct-18 17:00 35.259609 -120.651156 61 1500ft 103kts
02-Oct-18 17:01 35.250862 -120.620477 127 1727ft 83kts
02-Oct-18 17:02 35.231370 -120.598606 156 1498ft 91kts
02-Oct-18 17:03 35.222579 -120.614140 291 636ft 77kts
02-Oct-18 17:04 35.232765 -120.632995 296 272ft 61kts
02-Oct-18 17:05 35.237518 -120.640007 21 215ft 1kts
02-Oct-18 17:06 35.238412 -120.640374 350 215ft 0kts
02-Oct-18 17:07 35.238521 -120.640202 61 215ft 6kts
02-Oct-18 17:08 35.238573 -120.640097 58 215ft 0kts
02-Oct-18 17:09 35.238574 -120.640095 58 215ft 0kts
02-Oct-18 17:10 35.238575 -120.640093 58 215ft 0kts
02-Oct-18 17:15 35.238580 -120.640084 58 215ft 0kts
02-Oct-18 17:16 35.237613 -120.639941 193 215ft 0kts
02-Oct-18 17:17 35.234755 -120.634608 124 215ft 29kts
02-Oct-18 17:18 35.233352 -120.632551 212 215ft 0kts
02-Oct-18 17:19 35.233562 -120.634475 306 215ft 41kts
02-Oct-18 17:20 35.248925 -120.641615 36 1111ft 88kts
02-Oct-18 17:21 35.260192 -120.614251 85 2323ft 92kts
02-Oct-18 17:22 35.266173 -120.580369 129 3264ft 105kts
02-Oct-18 17:23 35.251005 -120.552288 104 4178ft 116kts
02-Oct-18 17:24 35.254648 -120.512684 85 5080ft 116kts
02-Oct-18 17:25 35.260227 -120.470915 86 5493ft 140kts
02-Oct-18 17:26 35.266427 -120.422924 85 5503ft 143kts
02-Oct-18 17:27 35.272653 -120.374987 84 5503ft 142kts
02-Oct-18 17:28 35.278719 -120.327119 85 5501ft 142kts
02-Oct-18 17:29 35.284831 -120.279075 86 5500ft 143kts
02-Oct-18 17:30 35.290959 -120.230927 85 5498ft 141kts
02-Oct-18 17:31 35.297049 -120.183087 84 5499ft 144kts
02-Oct-18 17:32 35.303201 -120.134073 85 5493ft 146kts
02-Oct-18 17:33 35.309406 -120.084688 85 5483ft 147kts
02-Oct-18 17:34 35.315563 -120.035542 84 5476ft 144kts
02-Oct-18 17:35 35.321686 -119.986677 85 5475ft 147kts
02-Oct-18 17:36 35.327829 -119.937060 84 5478ft 146kts
02-Oct-18 17:37 35.333904 -119.889084 85 5916ft 133kts
02-Oct-18 17:38 35.339679 -119.841421 85 6614ft 152kts
02-Oct-18 17:39 35.345257 -119.796823 86 7164ft 114kts
02-Oct-18 17:40 35.350361 -119.754563 85 7494ft 137kts
02-Oct-18 17:41 35.355937 -119.708935 85 7506ft 141kts
02-Oct-18 17:42 35.362187 -119.657837 85 7476ft 151kts
02-Oct-18 17:43 35.368284 -119.607970 85 7224ft 140kts
02-Oct-18 17:44 35.373810 -119.562046 85 6455ft 145kts
02-Oct-18 17:45 35.379720 -119.513580 85 5628ft 125kts
02-Oct-18 17:46 35.385221 -119.467296 85 5470ft 159kts
02-Oct-18 17:47 35.391138 -119.418932 86 5177ft 124kts
02-Oct-18 17:48 35.396052 -119.377370 86 4380ft 124kts
02-Oct-18 17:49 35.401446 -119.332031 85 3608ft 142kts
02-Oct-18 17:50 35.406482 -119.289879 86 3498ft 131kts
02-Oct-18 17:51 35.411720 -119.245530 85 3328ft 130kts
02-Oct-18 17:52 35.416828 -119.202401 84 2400ft 121kts
02-Oct-18 17:53 35.421457 -119.163175 82 1976ft 102kts
02-Oct-18 17:54 35.425369 -119.130144 83 1972ft 97kts
02-Oct-18 17:55 35.429810 -119.096096 83 1961ft 107kts
02-Oct-18 17:56 35.416758 -119.064816 125 2031ft 101kts
02-Oct-18 17:57 35.403149 -119.040557 126 1566ft 81kts
02-Oct-18 17:58 35.405978 -119.022182 320 922ft 88kts
02-Oct-18 17:59 35.422707 -119.046416 316 713ft 89kts
02-Oct-18 18:00 35.434606 -119.060148 16 510ft 14kts
02-Oct-18 18:01 35.436289 -119.056961 124 510ft 16kts
02-Oct-18 18:02 35.432094 -119.051843 134 510ft 20kts
02-Oct-18 18:03 35.431651 -119.049190 124 510ft 0kts

Navigation Log

Ident Type
1. KSBP Airport
2. KBFL Airport